sensor_id;sensor_type;location;lat;lon;timestamp;temperature;humidity
52044;DHT22;38053;53.100;6.078;2023-04-15T00:01:24;7.10;99.90
52044;DHT22;38053;53.100;6.078;2023-04-15T00:03:53;7.10;99.90
52044;DHT22;38053;53.100;6.078;2023-04-15T00:06:20;7.00;99.90
52044;DHT22;38053;53.100;6.078;2023-04-15T00:08:46;7.00;99.90
52044;DHT22;38053;53.100;6.078;2023-04-15T00:11:14;7.00;99.90
52044;DHT22;38053;53.100;6.078;2023-04-15T00:13:40;7.00;99.90
52044;DHT22;38053;53.100;6.078;2023-04-15T00:16:06;6.90;99.90
52044;DHT22;38053;53.100;6.078;2023-04-15T00:18:33;6.90;99.90
52044;DHT22;38053;53.100;6.078;2023-04-15T00:21:00;6.80;99.90
52044;DHT22;38053;53.100;6.078;2023-04-15T00:23:26;6.80;99.90
52044;DHT22;38053;53.100;6.078;2023-04-15T00:25:52;6.80;99.90
52044;DHT22;38053;53.100;6.078;2023-04-15T00:28:18;6.70;99.90
52044;DHT22;38053;53.100;6.078;2023-04-15T00:30:44;6.70;99.90
52044;DHT22;38053;53.100;6.078;2023-04-15T00:33:13;6.60;99.90
52044;DHT22;38053;53.100;6.078;2023-04-15T00:35:43;6.50;99.90
52044;DHT22;38053;53.100;6.078;2023-04-15T00:38:09;6.50;99.90
52044;DHT22;38053;53.100;6.078;2023-04-15T00:40:36;6.40;99.90
52044;DHT22;38053;53.100;6.078;2023-04-15T00:43:02;6.40;99.90
52044;DHT22;38053;53.100;6.078;2023-04-15T00:45:29;6.30;99.90
52044;DHT22;38053;53.100;6.078;2023-04-15T00:47:55;6.30;99.90
52044;DHT22;38053;53.100;6.078;2023-04-15T00:50:21;6.20;99.90
52044;DHT22;38053;53.100;6.078;2023-04-15T00:52:47;6.20;99.90
52044;DHT22;38053;53.100;6.078;2023-04-15T00:55:14;6.20;99.90
52044;DHT22;38053;53.100;6.078;2023-04-15T00:57:40;6.10;99.90
52044;DHT22;38053;53.100;6.078;2023-04-15T01:00:07;6.10;99.90
52044;DHT22;38053;53.100;6.078;2023-04-15T01:02:34;6.10;99.90
52044;DHT22;38053;53.100;6.078;2023-04-15T01:05:01;6.10;99.90
52044;DHT22;38053;53.100;6.078;2023-04-15T01:07:26;6.00;99.90
52044;DHT22;38053;53.100;6.078;2023-04-15T01:09:52;6.00;99.90
52044;DHT22;38053;53.100;6.078;2023-04-15T01:12:19;5.90;99.90
52044;DHT22;38053;53.100;6.078;2023-04-15T01:14:48;5.90;99.90
52044;DHT22;38053;53.100;6.078;2023-04-15T01:17:13;5.90;99.90
52044;DHT22;38053;53.100;6.078;2023-04-15T01:19:39;5.80;99.90
52044;DHT22;38053;53.100;6.078;2023-04-15T01:22:05;5.80;99.90
52044;DHT22;38053;53.100;6.078;2023-04-15T01:24:32;5.80;99.90
52044;DHT22;38053;53.100;6.078;2023-04-15T01:26:58;5.80;99.90
52044;DHT22;38053;53.100;6.078;2023-04-15T01:29:24;5.70;99.90
52044;DHT22;38053;53.100;6.078;2023-04-15T01:31:54;5.70;99.90
52044;DHT22;38053;53.100;6.078;2023-04-15T01:34:20;5.70;99.90
52044;DHT22;38053;53.100;6.078;2023-04-15T01:36:47;5.70;99.90
52044;DHT22;38053;53.100;6.078;2023-04-15T01:39:13;5.60;99.90
52044;DHT22;38053;53.100;6.078;2023-04-15T01:41:39;5.60;99.90
52044;DHT22;38053;53.100;6.078;2023-04-15T01:44:07;5.50;99.90
52044;DHT22;38053;53.100;6.078;2023-04-15T01:46:32;5.50;99.90
52044;DHT22;38053;53.100;6.078;2023-04-15T01:48:58;5.50;99.90
52044;DHT22;38053;53.100;6.078;2023-04-15T01:51:24;5.40;99.90
52044;DHT22;38053;53.100;6.078;2023-04-15T01:53:50;5.40;99.90
52044;DHT22;38053;53.100;6.078;2023-04-15T01:56:16;5.40;99.90
52044;DHT22;38053;53.100;6.078;2023-04-15T01:58:43;5.40;99.90
52044;DHT22;38053;53.100;6.078;2023-04-15T02:01:09;5.40;99.90
52044;DHT22;38053;53.100;6.078;2023-04-15T02:03:37;5.40;99.90
52044;DHT22;38053;53.100;6.078;2023-04-15T02:06:04;5.40;99.90
52044;DHT22;38053;53.100;6.078;2023-04-15T02:08:30;5.30;99.90
52044;DHT22;38053;53.100;6.078;2023-04-15T02:10:56;5.30;99.90
52044;DHT22;38053;53.100;6.078;2023-04-15T02:13:22;5.30;99.90
52044;DHT22;38053;53.100;6.078;2023-04-15T02:15:48;5.30;99.90
52044;DHT22;38053;53.100;6.078;2023-04-15T02:18:17;5.30;99.90
52044;DHT22;38053;53.100;6.078;2023-04-15T02:20:43;5.30;99.90
52044;DHT22;38053;53.100;6.078;2023-04-15T02:23:09;5.30;99.90
52044;DHT22;38053;53.100;6.078;2023-04-15T02:25:38;5.20;99.90
52044;DHT22;38053;53.100;6.078;2023-04-15T02:28:07;5.20;99.90
52044;DHT22;38053;53.100;6.078;2023-04-15T02:30:33;5.20;99.90
52044;DHT22;38053;53.100;6.078;2023-04-15T02:33:02;5.20;99.90
52044;DHT22;38053;53.100;6.078;2023-04-15T02:35:27;5.20;99.90
52044;DHT22;38053;53.100;6.078;2023-04-15T02:37:54;5.10;99.90
52044;DHT22;38053;53.100;6.078;2023-04-15T02:40:20;5.10;99.90
52044;DHT22;38053;53.100;6.078;2023-04-15T02:42:46;5.10;99.90
52044;DHT22;38053;53.100;6.078;2023-04-15T02:45:12;5.10;99.90
52044;DHT22;38053;53.100;6.078;2023-04-15T02:47:37;5.10;99.90
52044;DHT22;38053;53.100;6.078;2023-04-15T02:50:10;5.10;99.90
52044;DHT22;38053;53.100;6.078;2023-04-15T02:52:41;5.10;99.90
52044;DHT22;38053;53.100;6.078;2023-04-15T02:55:07;5.10;99.90
52044;DHT22;38053;53.100;6.078;2023-04-15T02:57:34;5.10;99.90
52044;DHT22;38053;53.100;6.078;2023-04-15T03:00:02;5.00;99.90
52044;DHT22;38053;53.100;6.078;2023-04-15T03:02:38;5.00;99.90
52044;DHT22;38053;53.100;6.078;2023-04-15T03:05:04;5.00;99.90
52044;DHT22;38053;53.100;6.078;2023-04-15T03:07:31;5.00;99.90
52044;DHT22;38053;53.100;6.078;2023-04-15T03:10:01;4.90;99.90
52044;DHT22;38053;53.100;6.078;2023-04-15T03:12:26;4.90;99.90
52044;DHT22;38053;53.100;6.078;2023-04-15T03:14:53;4.90;99.90
52044;DHT22;38053;53.100;6.078;2023-04-15T03:17:21;4.90;99.90
52044;DHT22;38053;53.100;6.078;2023-04-15T03:19:47;4.90;99.90
52044;DHT22;38053;53.100;6.078;2023-04-15T03:22:13;4.80;99.90
52044;DHT22;38053;53.100;6.078;2023-04-15T03:24:38;4.90;99.90
52044;DHT22;38053;53.100;6.078;2023-04-15T03:27:04;4.90;99.90
52044;DHT22;38053;53.100;6.078;2023-04-15T03:29:30;4.80;99.90
52044;DHT22;38053;53.100;6.078;2023-04-15T03:31:56;4.80;99.90
52044;DHT22;38053;53.100;6.078;2023-04-15T03:34:22;4.80;99.90
52044;DHT22;38053;53.100;6.078;2023-04-15T03:36:47;4.80;99.90
52044;DHT22;38053;53.100;6.078;2023-04-15T03:39:13;4.70;99.90
52044;DHT22;38053;53.100;6.078;2023-04-15T03:41:39;4.70;99.90
52044;DHT22;38053;53.100;6.078;2023-04-15T03:44:05;4.70;99.90
52044;DHT22;38053;53.100;6.078;2023-04-15T03:46:30;4.70;99.90
52044;DHT22;38053;53.100;6.078;2023-04-15T03:48:56;4.70;99.90
52044;DHT22;38053;53.100;6.078;2023-04-15T03:51:22;4.60;99.90
52044;DHT22;38053;53.100;6.078;2023-04-15T03:53:47;4.50;99.90
52044;DHT22;38053;53.100;6.078;2023-04-15T03:56:13;4.50;99.90
52044;DHT22;38053;53.100;6.078;2023-04-15T03:58:39;4.50;99.90
52044;DHT22;38053;53.100;6.078;2023-04-15T04:01:04;4.50;99.90
52044;DHT22;38053;53.100;6.078;2023-04-15T04:03:30;4.50;99.90
52044;DHT22;38053;53.100;6.078;2023-04-15T04:05:56;4.40;99.90
52044;DHT22;38053;53.100;6.078;2023-04-15T04:08:22;4.40;99.90
52044;DHT22;38053;53.100;6.078;2023-04-15T04:10:48;4.40;99.90
52044;DHT22;38053;53.100;6.078;2023-04-15T04:13:13;4.40;99.90
52044;DHT22;38053;53.100;6.078;2023-04-15T04:15:39;4.40;99.90
52044;DHT22;38053;53.100;6.078;2023-04-15T04:18:08;4.30;99.90
52044;DHT22;38053;53.100;6.078;2023-04-15T04:20:33;4.30;99.90
52044;DHT22;38053;53.100;6.078;2023-04-15T04:22:59;4.30;99.90
52044;DHT22;38053;53.100;6.078;2023-04-15T04:25:25;4.30;99.90
52044;DHT22;38053;53.100;6.078;2023-04-15T04:27:51;4.30;99.90
52044;DHT22;38053;53.100;6.078;2023-04-15T04:30:17;4.30;99.90
52044;DHT22;38053;53.100;6.078;2023-04-15T04:32:43;4.30;99.90
52044;DHT22;38053;53.100;6.078;2023-04-15T04:35:09;4.30;99.90
52044;DHT22;38053;53.100;6.078;2023-04-15T04:37:34;4.30;99.90
52044;DHT22;38053;53.100;6.078;2023-04-15T04:40:00;4.30;99.90
52044;DHT22;38053;53.100;6.078;2023-04-15T04:42:26;4.30;99.90
52044;DHT22;38053;53.100;6.078;2023-04-15T04:44:52;4.30;99.90
52044;DHT22;38053;53.100;6.078;2023-04-15T04:47:18;4.30;99.90
52044;DHT22;38053;53.100;6.078;2023-04-15T04:49:45;4.30;99.90
52044;DHT22;38053;53.100;6.078;2023-04-15T04:52:10;4.30;99.90
52044;DHT22;38053;53.100;6.078;2023-04-15T04:54:41;4.30;99.90
52044;DHT22;38053;53.100;6.078;2023-04-15T04:57:09;4.30;99.90
52044;DHT22;38053;53.100;6.078;2023-04-15T04:59:35;4.30;99.90
52044;DHT22;38053;53.100;6.078;2023-04-15T05:02:01;4.30;99.90
52044;DHT22;38053;53.100;6.078;2023-04-15T05:04:27;4.30;99.90
52044;DHT22;38053;53.100;6.078;2023-04-15T05:06:53;4.30;99.90
52044;DHT22;38053;53.100;6.078;2023-04-15T05:09:19;4.30;99.90
52044;DHT22;38053;53.100;6.078;2023-04-15T05:11:44;4.30;99.90
52044;DHT22;38053;53.100;6.078;2023-04-15T05:14:10;4.30;99.90
52044;DHT22;38053;53.100;6.078;2023-04-15T05:16:36;4.30;99.90
52044;DHT22;38053;53.100;6.078;2023-04-15T05:19:01;4.40;99.90
52044;DHT22;38053;53.100;6.078;2023-04-15T05:21:27;4.40;99.90
52044;DHT22;38053;53.100;6.078;2023-04-15T05:23:53;4.40;99.90
52044;DHT22;38053;53.100;6.078;2023-04-15T05:26:19;4.40;99.90
52044;DHT22;38053;53.100;6.078;2023-04-15T05:28:46;4.40;99.90
52044;DHT22;38053;53.100;6.078;2023-04-15T05:31:12;4.50;99.90
52044;DHT22;38053;53.100;6.078;2023-04-15T05:33:38;4.60;99.90
52044;DHT22;38053;53.100;6.078;2023-04-15T05:36:05;4.60;99.90
52044;DHT22;38053;53.100;6.078;2023-04-15T05:38:31;4.60;99.90
52044;DHT22;38053;53.100;6.078;2023-04-15T05:40:56;4.70;99.90
52044;DHT22;38053;53.100;6.078;2023-04-15T05:43:22;4.80;99.90
52044;DHT22;38053;53.100;6.078;2023-04-15T05:45:48;4.80;99.90
52044;DHT22;38053;53.100;6.078;2023-04-15T05:48:13;4.90;99.90
52044;DHT22;38053;53.100;6.078;2023-04-15T05:50:42;4.90;99.90
52044;DHT22;38053;53.100;6.078;2023-04-15T05:53:08;5.00;99.90
52044;DHT22;38053;53.100;6.078;2023-04-15T05:55:34;5.10;99.90
52044;DHT22;38053;53.100;6.078;2023-04-15T05:58:00;5.20;99.90
52044;DHT22;38053;53.100;6.078;2023-04-15T06:00:25;5.30;99.90
52044;DHT22;38053;53.100;6.078;2023-04-15T06:02:51;5.30;99.90
52044;DHT22;38053;53.100;6.078;2023-04-15T06:05:17;5.40;99.90
52044;DHT22;38053;53.100;6.078;2023-04-15T06:07:43;5.60;99.90
52044;DHT22;38053;53.100;6.078;2023-04-15T06:10:09;5.70;99.90
52044;DHT22;38053;53.100;6.078;2023-04-15T06:12:35;5.80;99.90
52044;DHT22;38053;53.100;6.078;2023-04-15T06:15:02;5.90;99.90
52044;DHT22;38053;53.100;6.078;2023-04-15T06:17:28;6.00;99.90
52044;DHT22;38053;53.100;6.078;2023-04-15T06:19:54;6.00;99.90
52044;DHT22;38053;53.100;6.078;2023-04-15T06:22:21;6.10;99.90
52044;DHT22;38053;53.100;6.078;2023-04-15T06:24:48;6.20;99.90
52044;DHT22;38053;53.100;6.078;2023-04-15T06:27:17;6.30;99.90
52044;DHT22;38053;53.100;6.078;2023-04-15T06:29:43;6.30;99.90
52044;DHT22;38053;53.100;6.078;2023-04-15T06:32:09;6.40;99.90
52044;DHT22;38053;53.100;6.078;2023-04-15T06:34:36;6.40;99.90
52044;DHT22;38053;53.100;6.078;2023-04-15T06:37:02;6.50;99.90
52044;DHT22;38053;53.100;6.078;2023-04-15T06:39:31;6.50;99.90
52044;DHT22;38053;53.100;6.078;2023-04-15T06:41:57;6.60;99.90
52044;DHT22;38053;53.100;6.078;2023-04-15T06:44:22;6.60;99.90
52044;DHT22;38053;53.100;6.078;2023-04-15T06:46:48;6.70;99.90
52044;DHT22;38053;53.100;6.078;2023-04-15T06:49:14;6.80;99.90
52044;DHT22;38053;53.100;6.078;2023-04-15T06:51:41;6.80;99.90
52044;DHT22;38053;53.100;6.078;2023-04-15T06:54:07;6.90;99.90
52044;DHT22;38053;53.100;6.078;2023-04-15T06:56:33;7.00;99.90
52044;DHT22;38053;53.100;6.078;2023-04-15T06:58:58;7.10;99.90
52044;DHT22;38053;53.100;6.078;2023-04-15T07:01:24;7.20;99.90
52044;DHT22;38053;53.100;6.078;2023-04-15T07:03:50;7.40;99.90
52044;DHT22;38053;53.100;6.078;2023-04-15T07:06:16;7.50;99.90
52044;DHT22;38053;53.100;6.078;2023-04-15T07:08:41;7.70;99.90
52044;DHT22;38053;53.100;6.078;2023-04-15T07:11:08;7.80;99.90
52044;DHT22;38053;53.100;6.078;2023-04-15T07:13:34;7.90;99.90
52044;DHT22;38053;53.100;6.078;2023-04-15T07:16:00;8.10;99.90
52044;DHT22;38053;53.100;6.078;2023-04-15T07:18:25;8.20;99.90
52044;DHT22;38053;53.100;6.078;2023-04-15T07:20:51;8.30;99.90
52044;DHT22;38053;53.100;6.078;2023-04-15T07:23:17;8.40;99.90
52044;DHT22;38053;53.100;6.078;2023-04-15T07:25:43;8.40;99.90
52044;DHT22;38053;53.100;6.078;2023-04-15T07:28:08;8.50;99.90
52044;DHT22;38053;53.100;6.078;2023-04-15T07:30:34;8.60;99.90
52044;DHT22;38053;53.100;6.078;2023-04-15T07:33:00;8.60;99.90
52044;DHT22;38053;53.100;6.078;2023-04-15T07:35:26;8.60;99.90
52044;DHT22;38053;53.100;6.078;2023-04-15T07:37:52;8.70;99.90
52044;DHT22;38053;53.100;6.078;2023-04-15T07:40:18;8.70;99.90
52044;DHT22;38053;53.100;6.078;2023-04-15T07:42:44;8.80;99.90
52044;DHT22;38053;53.100;6.078;2023-04-15T07:45:10;8.80;99.90
52044;DHT22;38053;53.100;6.078;2023-04-15T07:47:37;8.80;99.90
52044;DHT22;38053;53.100;6.078;2023-04-15T07:50:03;8.90;99.90
52044;DHT22;38053;53.100;6.078;2023-04-15T07:52:28;8.90;99.90
52044;DHT22;38053;53.100;6.078;2023-04-15T07:54:54;9.00;99.90
52044;DHT22;38053;53.100;6.078;2023-04-15T07:57:20;9.10;99.90
52044;DHT22;38053;53.100;6.078;2023-04-15T07:59:46;9.10;99.90
52044;DHT22;38053;53.100;6.078;2023-04-15T08:02:12;9.20;99.90
52044;DHT22;38053;53.100;6.078;2023-04-15T08:04:38;9.30;99.90
52044;DHT22;38053;53.100;6.078;2023-04-15T08:07:04;9.40;99.90
52044;DHT22;38053;53.100;6.078;2023-04-15T08:09:30;9.50;99.90
52044;DHT22;38053;53.100;6.078;2023-04-15T08:11:56;9.70;99.90
52044;DHT22;38053;53.100;6.078;2023-04-15T08:14:23;9.90;99.90
52044;DHT22;38053;53.100;6.078;2023-04-15T08:17:09;9.90;99.90
52044;DHT22;38053;53.100;6.078;2023-04-15T08:19:34;10.00;99.90
52044;DHT22;38053;53.100;6.078;2023-04-15T08:22:00;10.10;99.90
52044;DHT22;38053;53.100;6.078;2023-04-15T08:24:26;10.20;99.90
52044;DHT22;38053;53.100;6.078;2023-04-15T08:26:52;10.30;99.90
52044;DHT22;38053;53.100;6.078;2023-04-15T08:29:21;10.40;99.90
52044;DHT22;38053;53.100;6.078;2023-04-15T08:31:48;10.50;99.90
52044;DHT22;38053;53.100;6.078;2023-04-15T08:34:14;10.60;99.90
52044;DHT22;38053;53.100;6.078;2023-04-15T08:36:55;10.50;99.90
52044;DHT22;38053;53.100;6.078;2023-04-15T08:39:21;10.40;99.90
52044;DHT22;38053;53.100;6.078;2023-04-15T08:41:51;10.40;99.90
52044;DHT22;38053;53.100;6.078;2023-04-15T08:44:18;10.30;99.90
52044;DHT22;38053;53.100;6.078;2023-04-15T08:46:44;10.30;99.90
52044;DHT22;38053;53.100;6.078;2023-04-15T08:49:14;10.10;99.90
52044;DHT22;38053;53.100;6.078;2023-04-15T08:51:40;10.00;99.90
52044;DHT22;38053;53.100;6.078;2023-04-15T08:54:07;10.00;99.90
52044;DHT22;38053;53.100;6.078;2023-04-15T08:56:33;9.80;99.90
52044;DHT22;38053;53.100;6.078;2023-04-15T08:59:00;9.70;99.90
52044;DHT22;38053;53.100;6.078;2023-04-15T09:01:26;9.70;99.90
52044;DHT22;38053;53.100;6.078;2023-04-15T09:03:52;9.60;99.90
52044;DHT22;38053;53.100;6.078;2023-04-15T09:06:21;9.60;99.90
52044;DHT22;38053;53.100;6.078;2023-04-15T09:08:48;9.60;99.90
52044;DHT22;38053;53.100;6.078;2023-04-15T09:11:15;9.70;99.90
52044;DHT22;38053;53.100;6.078;2023-04-15T09:13:42;9.80;99.90
52044;DHT22;38053;53.100;6.078;2023-04-15T09:16:08;9.90;99.90
52044;DHT22;38053;53.100;6.078;2023-04-15T09:18:37;10.00;99.90
52044;DHT22;38053;53.100;6.078;2023-04-15T09:21:07;10.00;99.90
52044;DHT22;38053;53.100;6.078;2023-04-15T09:23:36;9.90;99.90
52044;DHT22;38053;53.100;6.078;2023-04-15T09:26:03;9.70;99.90
52044;DHT22;38053;53.100;6.078;2023-04-15T09:28:29;9.70;99.90
52044;DHT22;38053;53.100;6.078;2023-04-15T09:30:59;9.60;99.90
52044;DHT22;38053;53.100;6.078;2023-04-15T09:33:26;9.50;99.90
52044;DHT22;38053;53.100;6.078;2023-04-15T09:36:11;9.50;99.90
52044;DHT22;38053;53.100;6.078;2023-04-15T09:38:57;9.60;99.90
52044;DHT22;38053;53.100;6.078;2023-04-15T09:41:24;9.60;99.90
52044;DHT22;38053;53.100;6.078;2023-04-15T09:43:50;9.80;99.90
52044;DHT22;38053;53.100;6.078;2023-04-15T09:46:16;10.10;99.90
52044;DHT22;38053;53.100;6.078;2023-04-15T09:48:42;10.10;99.90
52044;DHT22;38053;53.100;6.078;2023-04-15T09:51:08;10.20;99.90
52044;DHT22;38053;53.100;6.078;2023-04-15T09:53:35;10.30;99.90
52044;DHT22;38053;53.100;6.078;2023-04-15T09:56:02;10.40;99.90
52044;DHT22;38053;53.100;6.078;2023-04-15T09:58:30;10.40;99.90
52044;DHT22;38053;53.100;6.078;2023-04-15T10:00:58;10.40;99.90
52044;DHT22;38053;53.100;6.078;2023-04-15T10:03:29;10.50;99.90
52044;DHT22;38053;53.100;6.078;2023-04-15T10:05:58;10.60;99.90
52044;DHT22;38053;53.100;6.078;2023-04-15T10:08:29;10.50;99.90
52044;DHT22;38053;53.100;6.078;2023-04-15T10:10:56;10.50;99.90
52044;DHT22;38053;53.100;6.078;2023-04-15T10:13:26;10.60;99.90
52044;DHT22;38053;53.100;6.078;2023-04-15T10:15:57;10.60;99.90
52044;DHT22;38053;53.100;6.078;2023-04-15T10:18:26;10.60;99.90
52044;DHT22;38053;53.100;6.078;2023-04-15T10:20:53;10.50;99.90
52044;DHT22;38053;53.100;6.078;2023-04-15T10:23:20;10.40;99.90
52044;DHT22;38053;53.100;6.078;2023-04-15T10:25:48;10.40;99.90
52044;DHT22;38053;53.100;6.078;2023-04-15T10:28:16;10.30;99.90
52044;DHT22;38053;53.100;6.078;2023-04-15T10:30:43;10.40;99.90
52044;DHT22;38053;53.100;6.078;2023-04-15T10:33:10;10.50;99.90
52044;DHT22;38053;53.100;6.078;2023-04-15T10:35:36;10.60;99.90
52044;DHT22;38053;53.100;6.078;2023-04-15T10:38:06;10.50;99.90
52044;DHT22;38053;53.100;6.078;2023-04-15T10:40:49;10.40;99.90
52044;DHT22;38053;53.100;6.078;2023-04-15T10:43:24;10.40;99.90
52044;DHT22;38053;53.100;6.078;2023-04-15T10:45:52;10.40;99.90
52044;DHT22;38053;53.100;6.078;2023-04-15T10:48:18;10.40;99.90
52044;DHT22;38053;53.100;6.078;2023-04-15T10:50:55;10.40;99.90
52044;DHT22;38053;53.100;6.078;2023-04-15T10:53:28;10.40;99.90
52044;DHT22;38053;53.100;6.078;2023-04-15T10:55:55;10.50;99.90
52044;DHT22;38053;53.100;6.078;2023-04-15T10:58:25;10.40;99.90
52044;DHT22;38053;53.100;6.078;2023-04-15T11:01:05;10.40;99.90
52044;DHT22;38053;53.100;6.078;2023-04-15T11:03:39;10.30;99.90
52044;DHT22;38053;53.100;6.078;2023-04-15T11:06:07;10.30;99.90
52044;DHT22;38053;53.100;6.078;2023-04-15T11:08:53;10.30;99.90
52044;DHT22;38053;53.100;6.078;2023-04-15T11:11:20;10.30;99.90
52044;DHT22;38053;53.100;6.078;2023-04-15T11:13:50;10.30;99.90
52044;DHT22;38053;53.100;6.078;2023-04-15T11:16:27;10.20;99.90
52044;DHT22;38053;53.100;6.078;2023-04-15T11:18:57;10.20;99.90
52044;DHT22;38053;53.100;6.078;2023-04-15T11:21:25;10.20;99.90
52044;DHT22;38053;53.100;6.078;2023-04-15T11:23:55;10.20;99.90
52044;DHT22;38053;53.100;6.078;2023-04-15T11:26:25;10.40;99.90
52044;DHT22;38053;53.100;6.078;2023-04-15T11:28:51;10.30;99.90
52044;DHT22;38053;53.100;6.078;2023-04-15T11:31:18;10.30;99.90
52044;DHT22;38053;53.100;6.078;2023-04-15T11:33:56;10.20;99.90
52044;DHT22;38053;53.100;6.078;2023-04-15T11:36:28;10.30;99.90
52044;DHT22;38053;53.100;6.078;2023-04-15T11:38:57;10.30;99.90
52044;DHT22;38053;53.100;6.078;2023-04-15T11:41:23;10.40;99.90
52044;DHT22;38053;53.100;6.078;2023-04-15T11:43:50;10.50;99.90
52044;DHT22;38053;53.100;6.078;2023-04-15T11:46:16;10.60;99.90
52044;DHT22;38053;53.100;6.078;2023-04-15T11:48:51;10.50;99.90
52044;DHT22;38053;53.100;6.078;2023-04-15T11:51:17;10.10;99.90
52044;DHT22;38053;53.100;6.078;2023-04-15T11:53:49;10.00;99.90
52044;DHT22;38053;53.100;6.078;2023-04-15T11:56:24;9.90;99.90
52044;DHT22;38053;53.100;6.078;2023-04-15T11:58:57;9.70;99.90
52044;DHT22;38053;53.100;6.078;2023-04-15T12:01:40;9.80;99.90
52044;DHT22;38053;53.100;6.078;2023-04-15T12:04:15;9.70;99.90
52044;DHT22;38053;53.100;6.078;2023-04-15T12:06:43;9.70;99.90
52044;DHT22;38053;53.100;6.078;2023-04-15T12:11:48;9.90;99.90
52044;DHT22;38053;53.100;6.078;2023-04-15T12:14:25;10.00;99.90
52044;DHT22;38053;53.100;6.078;2023-04-15T12:17:01;10.10;99.90
52044;DHT22;38053;53.100;6.078;2023-04-15T12:19:36;10.20;99.90
52044;DHT22;38053;53.100;6.078;2023-04-15T12:22:08;10.10;99.90
52044;DHT22;38053;53.100;6.078;2023-04-15T12:24:35;10.00;99.90
52044;DHT22;38053;53.100;6.078;2023-04-15T12:27:03;9.90;99.90
52044;DHT22;38053;53.100;6.078;2023-04-15T12:29:30;9.80;99.90
52044;DHT22;38053;53.100;6.078;2023-04-15T12:32:10;9.70;99.90
52044;DHT22;38053;53.100;6.078;2023-04-15T12:34:52;9.60;99.90
52044;DHT22;38053;53.100;6.078;2023-04-15T12:37:22;9.40;99.90
52044;DHT22;38053;53.100;6.078;2023-04-15T12:39:50;9.40;99.90
52044;DHT22;38053;53.100;6.078;2023-04-15T12:42:16;9.50;99.90
52044;DHT22;38053;53.100;6.078;2023-04-15T12:44:43;9.60;99.90
52044;DHT22;38053;53.100;6.078;2023-04-15T12:47:10;9.50;99.90
52044;DHT22;38053;53.100;6.078;2023-04-15T12:49:37;9.50;99.90
52044;DHT22;38053;53.100;6.078;2023-04-15T12:52:04;9.50;99.90
52044;DHT22;38053;53.100;6.078;2023-04-15T12:54:30;9.40;99.90
52044;DHT22;38053;53.100;6.078;2023-04-15T12:56:57;9.50;99.90
52044;DHT22;38053;53.100;6.078;2023-04-15T12:59:27;9.50;99.90
52044;DHT22;38053;53.100;6.078;2023-04-15T13:01:53;9.50;99.90
52044;DHT22;38053;53.100;6.078;2023-04-15T13:04:20;9.40;99.90
52044;DHT22;38053;53.100;6.078;2023-04-15T13:06:46;9.40;99.90
52044;DHT22;38053;53.100;6.078;2023-04-15T13:09:12;9.60;99.90
52044;DHT22;38053;53.100;6.078;2023-04-15T13:11:37;9.50;99.90
52044;DHT22;38053;53.100;6.078;2023-04-15T13:14:05;9.50;99.90
52044;DHT22;38053;53.100;6.078;2023-04-15T13:16:32;9.40;99.90
52044;DHT22;38053;53.100;6.078;2023-04-15T13:19:02;9.40;99.90
52044;DHT22;38053;53.100;6.078;2023-04-15T13:21:29;9.50;99.90
52044;DHT22;38053;53.100;6.078;2023-04-15T13:23:56;9.50;99.90
52044;DHT22;38053;53.100;6.078;2023-04-15T13:26:22;9.60;99.90
52044;DHT22;38053;53.100;6.078;2023-04-15T13:28:51;9.60;99.90
52044;DHT22;38053;53.100;6.078;2023-04-15T13:31:17;9.60;99.90
52044;DHT22;38053;53.100;6.078;2023-04-15T13:33:43;9.50;99.90
52044;DHT22;38053;53.100;6.078;2023-04-15T13:36:12;9.60;99.90
52044;DHT22;38053;53.100;6.078;2023-04-15T13:38:37;9.70;99.90
52044;DHT22;38053;53.100;6.078;2023-04-15T13:41:04;9.80;99.90
52044;DHT22;38053;53.100;6.078;2023-04-15T13:43:31;9.90;99.90
52044;DHT22;38053;53.100;6.078;2023-04-15T13:45:58;10.00;99.90
52044;DHT22;38053;53.100;6.078;2023-04-15T13:48:24;10.00;99.90
52044;DHT22;38053;53.100;6.078;2023-04-15T13:50:51;9.90;99.90
52044;DHT22;38053;53.100;6.078;2023-04-15T13:53:18;9.70;99.90
52044;DHT22;38053;53.100;6.078;2023-04-15T13:55:44;9.60;99.90
52044;DHT22;38053;53.100;6.078;2023-04-15T13:58:11;9.60;99.90
52044;DHT22;38053;53.100;6.078;2023-04-15T14:00:37;9.60;99.90
52044;DHT22;38053;53.100;6.078;2023-04-15T14:03:03;9.50;99.90
52044;DHT22;38053;53.100;6.078;2023-04-15T14:05:29;9.50;99.90
52044;DHT22;38053;53.100;6.078;2023-04-15T14:07:55;9.40;99.90
52044;DHT22;38053;53.100;6.078;2023-04-15T14:10:30;9.40;99.90
52044;DHT22;38053;53.100;6.078;2023-04-15T14:12:56;9.40;99.90
52044;DHT22;38053;53.100;6.078;2023-04-15T14:15:25;9.30;99.90
52044;DHT22;38053;53.100;6.078;2023-04-15T14:17:51;9.30;99.90
52044;DHT22;38053;53.100;6.078;2023-04-15T14:20:20;9.30;99.90
52044;DHT22;38053;53.100;6.078;2023-04-15T14:22:46;9.20;99.90
52044;DHT22;38053;53.100;6.078;2023-04-15T14:25:13;9.20;99.90
52044;DHT22;38053;53.100;6.078;2023-04-15T14:27:39;9.30;99.90
52044;DHT22;38053;53.100;6.078;2023-04-15T14:30:05;9.30;99.90
52044;DHT22;38053;53.100;6.078;2023-04-15T14:32:31;9.40;99.90
52044;DHT22;38053;53.100;6.078;2023-04-15T14:34:57;9.30;99.90
52044;DHT22;38053;53.100;6.078;2023-04-15T14:37:23;9.30;99.90
52044;DHT22;38053;53.100;6.078;2023-04-15T14:39:48;9.30;99.90
52044;DHT22;38053;53.100;6.078;2023-04-15T14:42:14;9.30;99.90
52044;DHT22;38053;53.100;6.078;2023-04-15T14:44:40;9.30;99.90
52044;DHT22;38053;53.100;6.078;2023-04-15T14:47:05;9.20;99.90
52044;DHT22;38053;53.100;6.078;2023-04-15T14:49:31;9.30;99.90
52044;DHT22;38053;53.100;6.078;2023-04-15T14:51:57;9.20;99.90
52044;DHT22;38053;53.100;6.078;2023-04-15T14:54:23;9.20;99.90
52044;DHT22;38053;53.100;6.078;2023-04-15T14:56:51;9.20;99.90
52044;DHT22;38053;53.100;6.078;2023-04-15T14:59:20;9.20;99.90
52044;DHT22;38053;53.100;6.078;2023-04-15T15:01:45;9.20;99.90
52044;DHT22;38053;53.100;6.078;2023-04-15T15:04:11;9.20;99.90
52044;DHT22;38053;53.100;6.078;2023-04-15T15:06:38;9.20;99.90
52044;DHT22;38053;53.100;6.078;2023-04-15T15:09:07;9.20;99.90
52044;DHT22;38053;53.100;6.078;2023-04-15T15:11:34;9.20;99.90
52044;DHT22;38053;53.100;6.078;2023-04-15T15:14:00;9.10;99.90
52044;DHT22;38053;53.100;6.078;2023-04-15T15:16:27;9.10;99.90
52044;DHT22;38053;53.100;6.078;2023-04-15T15:18:54;9.20;99.90
52044;DHT22;38053;53.100;6.078;2023-04-15T15:21:21;9.10;99.90
52044;DHT22;38053;53.100;6.078;2023-04-15T15:23:46;9.10;99.90
52044;DHT22;38053;53.100;6.078;2023-04-15T15:26:13;9.10;99.90
52044;DHT22;38053;53.100;6.078;2023-04-15T15:28:38;9.00;99.90
52044;DHT22;38053;53.100;6.078;2023-04-15T15:31:04;8.90;99.90
52044;DHT22;38053;53.100;6.078;2023-04-15T15:33:30;8.90;99.90
52044;DHT22;38053;53.100;6.078;2023-04-15T15:35:58;8.90;99.90
52044;DHT22;38053;53.100;6.078;2023-04-15T15:38:24;8.80;99.90
52044;DHT22;38053;53.100;6.078;2023-04-15T15:40:50;8.90;99.90
52044;DHT22;38053;53.100;6.078;2023-04-15T15:43:17;8.90;99.90
52044;DHT22;38053;53.100;6.078;2023-04-15T15:45:43;8.90;99.90